Data for 10/22/2008

Time Sea-Level Adjusted Pressure Absolute Pressure Temperature Relative Humidity Dew Point   
(mb) (inHg) (mb) (inHg) (C) (F) (%) (C) (F)
00:05 1033 30.5 862 25.45 0.4 32.6 64 -5.7 21.7
00:10 1033 30.5 862 25.45 0.3 32.5 65 -5.6 22
00:15 1033 30.5 862 25.45 0.2 32.4 65 -5.6 21.8
00:20 1033 30.5 862 25.45 0.2 32.4 64 -5.7 21.7
00:25 1033 30.5 862 25.45 0.3 32.5 64 -5.7 21.8
00:30 1033 30.5 862 25.45 0.4 32.6 64 -5.7 21.8
00:35 1033 30.5 862 25.45 0.4 32.7 65 -5.6 22
00:40 1033 30.5 862 25.45 0.4 32.8 63 -5.9 21.4
00:45 1033 30.5 862 25.45 0.5 33 62 -5.8 21.5
00:50 1033 30.5 862 25.45 0.5 33 63 -5.7 21.7
00:55 1033 30.5 862 25.45 0.6 33.2 61 -6 21.2
01:00 1033 30.5 862 25.45 0.7 33.2 61 -6 21.2
01:05 1033 30.5 862 25.45 0.6 33.1 62 -5.8 21.5
01:10 1033 30.5 862 25.45 0.6 33.1 62 -5.8 21.6
01:15 1033 30.5 862 25.45 0.6 33 64 -5.5 22.1
01:20 1033 30.5 862 25.45 0.6 33 64 -5.5 22.1
01:25 1033 30.5 862 25.45 0.5 33 65 -5.4 22.3
01:30 1033 30.5 863 25.48 0.5 32.9 62 -6 21.2
01:35 1033 30.5 863 25.48 0.6 33 62 -5.9 21.5
01:40 1033 30.5 863 25.48 0.7 33.2 62 -5.9 21.4
01:45 1034 30.53 863 25.48 0.7 33.2 62 -5.8 21.5
01:50 1034 30.53 863 25.48 0.7 33.3 62 -5.8 21.5
01:55 1034 30.53 863 25.48 0.7 33.3 61 -5.9 21.4
02:00 1034 30.53 863 25.48 0.7 33.2 61 -6.1 21
02:05 1034 30.53 863 25.48 0.7 33.2 61 -6.1 21.1
02:10 1034 30.53 863 25.48 0.6 33 62 -5.9 21.3
02:15 1034 30.53 863 25.48 0.6 33.1 60 -6.3 20.7
02:20 1034 30.53 863 25.48 0.7 33.2 61 -6.1 21.1
02:25 1034 30.53 863 25.48 0.5 33 62 -5.9 21.4
02:30 1034 30.53 863 25.48 0.5 32.9 64 -5.6 21.9
02:35 1034 30.53 863 25.48 0.4 32.8 64 -5.7 21.8
02:40 1034 30.53 863 25.48 0.4 32.6 64 -5.6 21.8
02:45 1034 30.53 863 25.48 0.3 32.6 63 -5.9 21.4
02:50 1034 30.53 863 25.48 0.3 32.5 63 -5.9 21.3
02:55 1034 30.53 863 25.48 0.3 32.5 63 -6 21.2
03:00 1034 30.53 863 25.48 0.2 32.4 61 -6.3 20.6
03:05 1034 30.53 863 25.48 0.3 32.6 61 -6.3 20.7
03:10 1034 30.53 863 25.48 0.4 32.6 61 -6.4 20.5
03:15 1034 30.53 863 25.48 0.4 32.6 60 -6.5 20.4
03:20 1034 30.53 863 25.48 0.4 32.7 59 -6.8 19.8
03:25 1034 30.53 863 25.48 0.4 32.8 59 -6.8 19.8
03:30 1034 30.53 863 25.48 0.4 32.7 58 -6.9 19.6
03:35 1034 30.53 863 25.48 0.3 32.6 59 -6.9 19.7
03:40 1034 30.53 863 25.48 0.2 32.4 60 -6.6 20
03:45 1034 30.53 863 25.48 0.1 32.2 60 -6.8 19.8
03:50 1034 30.53 863 25.48 -0 32 62 -6.5 20.3
03:55 1034 30.53 863 25.48 -0.3 31.5 65 -6 21.1
04:00 1034 30.53 863 25.48 -0.6 30.9 64 -6.5 20.2
04:05 1034 30.53 863 25.48 -0.6 30.8 63 -6.7 19.9
04:10 1034 30.53 863 25.48 -0.7 30.8 68 -5.9 21.4
04:15 1034 30.53 863 25.48 -1.1 30 71 -5.7 21.8
04:20 1034 30.53 863 25.48 -1.4 29.4 71 -6.1 21
04:25 1034 30.53 863 25.48 -1.4 29.5 70 -6.2 20.8
04:30 1034 30.53 863 25.48 -1.3 29.6 70 -6.1 21
04:35 1034 30.53 863 25.48 -1.4 29.6 70 -6.2 20.9
04:40 1034 30.53 863 25.48 -1.5 29.3 73 -5.8 21.5
04:45 1034 30.53 863 25.48 -1.7 29 73 -5.9 21.4
04:50 1034 30.53 863 25.48 -1.7 29 73 -5.9 21.4
04:55 1034 30.53 863 25.48 -1.9 28.6 74 -5.9 21.4
05:00 1034 30.53 863 25.48 -1.9 28.6 74 -6 21.2
05:05 1034 30.53 863 25.48 -1.9 28.6 73 -6 21.2
05:10 1034 30.53 863 25.48 -2 28.3 74 -6 21.2
05:15 1034 30.53 863 25.48 -2.1 28.2 74 -6.1 21
05:20 1034 30.53 863 25.48 -2.1 28.3 74 -6.1 21
05:25 1034 30.53 864 25.51 -2.1 28.2 74 -6.2 20.9
05:30 1034 30.53 864 25.51 -2.2 28.1 72 -6.5 20.2
05:35 1034 30.53 864 25.51 -2.2 28.1 72 -6.6 20.2
05:40 1034 30.53 864 25.51 -2.4 27.7 73 -6.5 20.3
05:45 1034 30.53 864 25.51 -2.6 27.3 74 -6.6 20.1
05:50 1034 30.53 864 25.51 -2.7 27.1 73 -6.9 19.7
05:55 1034 30.53 864 25.51 -2.8 27 74 -6.8 19.8
06:00 1034 30.53 864 25.51 -2.8 27 74 -6.9 19.7
06:05 1034 30.53 864 25.51 -2.8 26.9 72 -7.1 19.2
06:10 1034 30.53 864 25.51 -2.7 27.2 71 -7.2 19
06:15 1034 30.53 864 25.51 -2.6 27.3 71 -7.1 19.2
06:20 1034 30.53 863 25.48 -2.9 26.8 72 -7.2 19.1
06:25 1034 30.53 863 25.48 -3.1 26.5 73 -7.2 19
06:30 1034 30.53 863 25.48 -3.1 26.5 73 -7.3 18.9
06:35 1034 30.53 863 25.48 -3 26.7 73 -7.2 19
06:40 1034 30.53 863 25.48 -3.1 26.5 72 -7.4 18.7
06:45 1034 30.53 863 25.48 -3.2 26.2 74 -7.2 19.1
06:50 1034 30.53 863 25.48 -3.3 26.1 73 -7.4 18.6
06:55 1034 30.53 863 25.48 -3.3 26.1 73 -7.4 18.7
07:00 1034 30.53 863 25.48 -3.3 26.1 73 -7.5 18.6
07:05 1034 30.53 863 25.48 -3.4 25.9 74 -7.4 18.7
07:10 1034 30.53 863 25.48 -3.5 25.7 75 -7.3 18.9
07:15 1034 30.53 863 25.48 -3.7 25.3 76 -7.3 18.8
07:20 1034 30.53 863 25.48 -3.8 25.1 76 -7.4 18.6
07:25 1034 30.53 863 25.48 -3.9 25 76 -7.5 18.4
07:30 1034 30.53 863 25.48 -3.9 24.9 76 -7.6 18.3
07:35 1034 30.53 863 25.48 -3.9 25 75 -7.7 18.2
07:40 1034 30.53 863 25.48 -4 24.9 76 -7.6 18.3
07:45 1034 30.53 863 25.48 -4.1 24.7 75 -7.9 17.8
07:50 1034 30.53 863 25.48 -4 24.7 74 -8 17.5
07:55 1034 30.53 863 25.48 -3.9 24.9 74 -8 17.6
08:00 1034 30.53 863 25.48 -3.8 25.1 72 -8.2 17.3
08:05 1034 30.53 863 25.48 -3.7 25.4 72 -8.1 17.5
08:10 1034 30.53 863 25.48 -3.7 25.4 71 -8.1 17.4
08:15 1034 30.53 863 25.48 -3.6 25.5 70 -8.3 17
08:20 1034 30.53 863 25.48 -3.4 25.9 69 -8.3 17.1
08:25 1034 30.53 863 25.48 -3.2 26.3 67 -8.5 16.7
08:30 1034 30.53 864 25.51 -2.9 26.8 67 -8.2 17.3
08:35 1034 30.53 864 25.51 -2.9 26.8 69 -7.8 17.9
08:40 1034 30.53 864 25.51 -3.1 26.4 68 -8.2 17.3
08:45 1034 30.53 864 25.51 -2.8 27 65 -8.4 16.9
08:50 1034 30.53 864 25.51 -2.2 28.1 64 -8.1 17.5
08:55 1034 30.53 864 25.51 -1.9 28.6 63 -8 17.5
09:00 1034 30.53 864 25.51 -1.6 29 62 -8 17.5
09:05 1034 30.53 864 25.51 -1.5 29.3 64 -7.3 18.8
09:10 1034 30.53 863 25.48 -1.3 29.6 64 -7.3 18.9
09:15 1034 30.53 863 25.48 -1 30.2 60 -7.7 18.1
09:20 1034 30.53 863 25.48 -0.7 30.8 61 -7.3 18.8
09:25 1034 30.53 863 25.48 -0.5 31.1 59 -7.7 18.2
09:30 1034 30.53 863 25.48 -0.2 31.6 58 -7.4 18.7
09:35 1034 30.53 863 25.48 0.2 32.4 55 -7.7 18.2
09:40 1034 30.53 863 25.48 0.9 33.6 52 -7.8 17.9
09:45 1034 30.53 863 25.48 1.3 34.3 51 -7.7 18.1
09:50 1034 30.53 863 25.48 1.7 35.1 49 -7.9 17.8
09:55 1034 30.53 863 25.48 1.6 34.8 49 -8.1 17.4
10:00 1034 30.53 863 25.48 1.8 35.2 48 -8.2 17.3
10:05 1034 30.53 863 25.48 2 35.5 51 -7.2 19
10:10 1034 30.53 863 25.48 1.8 35.3 50 -7.5 18.5
10:15 1034 30.53 863 25.48 2 35.6 51 -7.1 19.3
10:20 1034 30.53 863 25.48 2.2 36 48 -7.6 18.4
10:25 1034 30.53 863 25.48 2.1 35.7 51 -7.1 19.2
10:30 1034 30.53 863 25.48 1.7 35 49 -7.8 17.9
10:35 1034 30.53 863 25.48 1.8 35.2 50 -7.6 18.4
10:40 1034 30.53 863 25.48 2.1 35.8 48 -7.9 17.9
10:45 1034 30.53 863 25.48 2.7 36.8 43 -8.7 16.3
10:50 1034 30.53 863 25.48 3.4 38.1 42 -8.3 17.1
10:55 1034 30.53 863 25.48 3.6 38.5 43 -8 17.7
11:00 1034 30.53 863 25.48 3.5 38.3 42 -8.3 17.1
11:05 1034 30.53 863 25.48 3.4 38 42 -8.3 17.1
11:10 1034 30.53 863 25.48 2.8 37.1 46 -7.7 18.1
11:15 1034 30.53 863 25.48 3.1 37.5 43 -8.4 16.8
11:20 1034 30.53 863 25.48 2.9 37.2 44 -8.2 17.2
11:25 1034 30.53 863 25.48 3.3 38 44 -7.7 18.2
11:30 1034 30.53 863 25.48 3.8 38.9 41 -8.2 17.3
11:35 1034 30.53 863 25.48 4 39.3 42 -7.9 17.9
11:40 1034 30.53 863 25.48 4.3 39.8 42 -7.3 18.8
11:45 1034 30.53 863 25.48 4.4 40 42 -7.5 18.5
11:50 1034 30.53 863 25.48 4.3 39.8 41 -7.8 18
11:55 1033 30.5 863 25.48 4.8 40.7 40 -7.7 18.2
12:00 1033 30.5 863 25.48 4.6 40.2 42 -7.3 18.8
12:05 1033 30.5 862 25.45 4.7 40.4 39 -8 17.6
12:10 1033 30.5 862 25.45 5.5 41.9 39 -7.4 18.6
12:15 1033 30.5 862 25.45 4.7 40.4 40 -7.8 17.9
12:20 1033 30.5 862 25.45 4.7 40.4 31 -11.1 12
12:25 1033 30.5 862 25.45 4.4 40 36 -9.4 15
12:30 1033 30.5 862 25.45 5.2 41.4 33 -9.7 14.5
12:35 1033 30.5 862 25.45 5.4 41.6 34 -9.4 15.1
12:40 1033 30.5 862 25.45 6 42.8 31 -9.9 14.1
12:45 1033 30.5 862 25.45 5.8 42.4 31 -10.3 13.5
12:50 1033 30.5 862 25.45 5.7 42.2 30 -10.5 13
12:55 1033 30.5 862 25.45 6.8 44.2 29 -9.8 14.3
13:00 1032 30.47 862 25.45 7 44.6 28 -10.2 13.7
13:05 1032 30.47 862 25.45 6.8 44.3 31 -9.2 15.4
13:10 1032 30.47 862 25.45 5.9 42.6 30 -10.6 13
13:15 1032 30.47 862 25.45 5.7 42.3 32 -9.6 14.8
13:20 1032 30.47 861 25.43 5.7 42.2 32 -9.9 14.2
13:25 1032 30.47 861 25.43 6.5 43.7 30 -10.1 13.9
13:30 1032 30.47 861 25.43 5.9 42.5 30 -10.6 12.9
13:35 1032 30.47 861 25.43 6.7 44.1 30 -9.7 14.5
13:40 1032 30.47 861 25.43 7.5 45.4 28 -10.1 13.9
13:45 1032 30.47 861 25.43 7.5 45.4 26 -10.7 12.8
13:50 1032 30.47 861 25.43 7.6 45.7 26 -10.8 12.5
13:55 1032 30.47 861 25.43 7.4 45.3 26 -11 12.2
14:00 1032 30.47 861 25.43 7.6 45.7 26 -11 12.3
14:05 1032 30.47 861 25.43 7.8 46 28 -9.8 14.4
14:10 1032 30.47 861 25.43 8.4 47.1 22 -12.3 9.9
14:15 1032 30.47 861 25.43 7.9 46.1 25 -11 12.1
14:20 1032 30.47 861 25.43 7.2 44.9 29 -9.5 14.8
14:25 1031 30.45 861 25.43 7.7 45.9 25 -11.3 11.7
14:30 1031 30.45 861 25.43 7.5 45.4 25 -11.3 11.7
14:35 1031 30.45 860 25.4 7.3 45.1 26 -11 12.2
14:40 1031 30.45 860 25.4 8.6 47.5 25 -10.5 13.1
14:45 1031 30.45 860 25.4 9 48.1 23 -11.1 12
14:50 1031 30.45 860 25.4 8.4 47 23 -11.8 10.8
14:55 1031 30.45 860 25.4 8.1 46.5 20 -13.7 7.4
15:00 1031 30.45 860 25.4 7.6 45.6 22 -13.1 8.4
15:05 1031 30.45 860 25.4 9 48.1 20 -13 8.7
15:10 1031 30.45 860 25.4 8.6 47.5 20 -12.8 8.9
15:15 1031 30.45 860 25.4 9.2 48.6 17 -14.4 6
15:20 1031 30.45 860 25.4 9.7 49.4 20 -12.3 9.8
15:25 1031 30.45 860 25.4 10.1 50.2 18 -13.3 8.1
15:30 1031 30.45 860 25.4 10.6 51 19 -12.4 9.7
15:35 1031 30.45 860 25.4 10 50 18 -13 8.5
15:40 1031 30.45 860 25.4 10 49.9 19 -12.5 9.4
15:45 1031 30.45 860 25.4 9.9 49.7 19 -12.9 8.7
15:50 1031 30.45 860 25.4 9.8 49.6 18 -13.6 7.5
15:55 1031 30.45 860 25.4 10.7 51.3 16 -13.9 6.9
16:00 1030 30.42 860 25.4 10.1 50.2 17 -13.9 7
16:05 1030 30.42 860 25.4 8.9 48 20 -13.1 8.4
16:10 1030 30.42 860 25.4 8.9 48 18 -14.3 6.2
16:15 1030 30.42 859 25.37 8.6 47.6 18 -14.4 6
16:20 1030 30.42 859 25.37 9 48.2 17 -14.9 5.3
16:25 1030 30.42 859 25.37 9.6 49.2 16 -14.8 5.3
16:30 1030 30.42 859 25.37 9.3 48.7 18 -14 6.9
16:35 1030 30.42 859 25.37 9.3 48.8 18 -14 6.9
16:40 1030 30.42 859 25.37 9.4 48.9 18 -13.8 7.2
16:45 1030 30.42 859 25.37 9.4 48.9 17 -14.3 6.3
16:50 1030 30.42 859 25.37 9.3 48.7 17 -14.3 6.3
16:55 1030 30.42 859 25.37 8.7 47.7 18 -14.5 5.9
17:00 1030 30.42 859 25.37 9 48.1 18 -14.4 6.1
17:05 1030 30.42 859 25.37 9.9 49.7 16 -15.2 4.6
17:10 1030 30.42 859 25.37 8.9 47.9 18 -14.2 6.5
17:15 1030 30.42 859 25.37 8.5 47.2 19 -14.1 6.6
17:20 1030 30.42 859 25.37 9 48.1 19 -13.4 7.9
17:25 1030 30.42 859 25.37 8.7 47.7 19 -14 6.8
17:30 1030 30.42 859 25.37 8.7 47.6 19 -13.8 7.2
17:35 1030 30.42 859 25.37 8.3 46.9 19 -13.8 7.2
17:40 1030 30.42 859 25.37 8 46.5 20 -13.9 7
17:45 1030 30.42 859 25.37 8.1 46.6 20 -13.5 7.7
17:50 1029 30.39 859 25.37 8.3 47 20 -13.2 8.2
17:55 1029 30.39 859 25.37 8.6 47.5 21 -12.7 9.2
18:00 1029 30.39 859 25.37 8.2 46.8 21 -13.2 8.3
18:05 1029 30.39 858 25.34 8 46.4 21 -13.1 8.5
18:10 1029 30.39 858 25.34 8.2 46.7 21 -12.9 8.7
18:15 1029 30.39 858 25.34 8.2 46.8 21 -12.7 9.1
18:20 1029 30.39 858 25.34 8.1 46.6 23 -11.8 10.7
18:25 1029 30.39 858 25.34 7.8 46.1 26 -10.5 13.2
18:30 1029 30.39 858 25.34 6.9 44.5 39 -6 21.2
18:35 1029 30.39 858 25.34 6 42.8 43 -5.7 21.8
18:40 1029 30.39 858 25.34 5.7 42.2 44 -5.6 22
18:45 1029 30.39 858 25.34 5.3 41.5 48 -5 23
18:50 1029 30.39 858 25.34 5.1 41.2 48 -5 23.1
18:55 1029 30.39 858 25.34 4.6 40.2 53 -4.1 24.6
19:00 1029 30.39 858 25.34 4 39.2 55 -4.3 24.2
19:05 1029 30.39 858 25.34 4 39.2 54 -4.6 23.7
19:10 1029 30.39 858 25.34 4 39.2 54 -4.4 24.1
19:15 1029 30.39 858 25.34 3.8 38.8 57 -4 24.9
19:20 1029 30.39 858 25.34 3.6 38.4 57 -4.3 24.3
19:25 1029 30.39 858 25.34 3.3 38 58 -4 24.7
19:30 1029 30.39 858 25.34 3.2 37.8 59 -4.1 24.7
19:35 1029 30.39 858 25.34 3.4 38.1 56 -4.5 23.8
19:40 1029 30.39 858 25.34 3.8 38.8 54 -4.6 23.7
19:45 1029 30.39 858 25.34 3.8 38.9 54 -4.6 23.7
19:50 1029 30.39 858 25.34 3.8 38.9 55 -4.4 24
19:55 1029 30.39 858 25.34 3.7 38.7 57 -4.1 24.6
20:00 1029 30.39 858 25.34 3.9 39.1 57 -3.9 25.1
20:05 1029 30.39 858 25.34 3.7 38.7 58 -3.8 25.1
20:10 1029 30.39 858 25.34 3.5 38.3 59 -3.8 25.2
20:15 1029 30.39 858 25.34 3.1 37.7 61 -3.6 25.4
20:20 1029 30.39 858 25.34 2.9 37.2 58 -4.6 23.7
20:25 1029 30.39 858 25.34 3.2 37.7 55 -5 23
20:30 1029 30.39 858 25.34 3.2 37.8 57 -4.5 23.9
20:35 1029 30.39 858 25.34 3 37.3 58 -4.4 24
20:40 1029 30.39 858 25.34 3 37.5 58 -4.4 24.1
20:45 1029 30.39 858 25.34 3 37.5 59 -4.3 24.3
20:50 1028 30.36 858 25.34 2.8 37.1 61 -3.9 25
20:55 1028 30.36 858 25.34 2.5 36.6 62 -4 24.7
21:00 1028 30.36 857 25.31 2.6 36.7 61 -4.2 24.5
21:05 1028 30.36 857 25.31 2.9 37.2 58 -4.5 23.9
21:10 1028 30.36 857 25.31 2.8 37.1 60 -4.2 24.5
21:15 1028 30.36 857 25.31 2.6 36.7 61 -4.1 24.6
21:20 1028 30.36 857 25.31 2.5 36.5 61 -4.3 24.2
21:25 1028 30.36 857 25.31 2.6 36.8 60 -4.3 24.2
21:30 1028 30.36 857 25.31 2.6 36.6 61 -4.2 24.4
21:35 1028 30.36 857 25.31 2.5 36.5 60 -4.4 24.1
21:40 1028 30.36 857 25.31 2.7 36.9 59 -4.6 23.7
21:45 1028 30.36 857 25.31 2.9 37.2 58 -4.5 23.8
21:50 1028 30.36 857 25.31 2.8 37.1 59 -4.4 24
21:55 1028 30.36 857 25.31 2.7 36.9 60 -4.4 24.2
22:00 1028 30.36 857 25.31 2.5 36.5 60 -4.5 23.9
22:05 1028 30.36 857 25.31 2.4 36.4 61 -4.4 24.1
22:10 1028 30.36 857 25.31 2.3 36.2 61 -4.4 24.1
22:15 1028 30.36 857 25.31 2.2 36 62 -4.4 24.1
22:20 1028 30.36 857 25.31 2.2 36 62 -4.3 24.2
22:25 1028 30.36 857 25.31 2.1 35.8 63 -4.3 24.3
22:30 1028 30.36 857 25.31 2 35.6 63 -4.3 24.3
22:35 1028 30.36 857 25.31 1.8 35.2 64 -4.4 24.1
22:40 1028 30.36 857 25.31 1.6 34.8 64 -4.4 24
22:45 1027 30.33 857 25.31 1.7 35 64 -4.4 24.1
22:50 1027 30.33 857 25.31 1.7 35.1 64 -4.3 24.2
22:55 1027 30.33 857 25.31 1.8 35.3 64 -4.3 24.2
23:00 1027 30.33 857 25.31 1.7 35.1 65 -4.2 24.4
23:05 1027 30.33 857 25.31 1.6 34.9 65 -4.3 24.2
23:10 1028 30.36 857 25.31 1.9 35.4 63 -4.4 24.1
23:15 1027 30.33 857 25.31 2.5 36.5 61 -4.2 24.4
23:20 1027 30.33 857 25.31 2.4 36.3 62 -4 24.7
23:25 1027 30.33 857 25.31 2.2 36 63 -4.2 24.4
23:30 1027 30.33 856 25.28 2.4 36.3 61 -4.3 24.3
23:35 1027 30.33 856 25.28 2.4 36.3 63 -4 24.8
23:40 1027 30.33 856 25.28 2.2 35.9 64 -4 24.8
23:45 1027 30.33 856 25.28 2.1 35.8 64 -3.9 24.9
23:50 1027 30.33 856 25.28 1.9 35.4 65 -4 24.8
23:55 1027 30.33 856 25.28 1.9 35.5 64 -4.1 24.7
24:00 1027 30.33 856 25.28 2 35.5 65 -3.9 25